sensor_id;sensor_type;location;lat;lon;timestamp;pressure;altitude;pressure_sealevel;temperature;humidity
20955;BME280;10636;19.390;-99.256;2022-10-31T00:01:29;77750.13;;;26.26;37.24
20955;BME280;10636;19.390;-99.256;2022-10-31T00:03:57;77758.19;;;26.26;37.52
20955;BME280;10636;19.390;-99.256;2022-10-31T00:06:26;77755.44;;;26.24;37.29
20955;BME280;10636;19.390;-99.256;2022-10-31T00:08:57;77758.06;;;26.22;37.42
20955;BME280;10636;19.390;-99.256;2022-10-31T00:11:26;77762.09;;;26.21;37.37
20955;BME280;10636;19.390;-99.256;2022-10-31T00:13:56;77768.75;;;26.20;37.45
20955;BME280;10636;19.390;-99.256;2022-10-31T00:16:27;77770.75;;;26.20;37.37
20955;BME280;10636;19.390;-99.256;2022-10-31T00:18:57;77759.19;;;26.15;37.36
20955;BME280;10636;19.390;-99.256;2022-10-31T00:21:26;77769.34;;;26.17;37.62
20955;BME280;10636;19.390;-99.256;2022-10-31T00:23:55;77770.00;;;26.17;37.69
20955;BME280;10636;19.390;-99.256;2022-10-31T00:26:23;77768.56;;;26.14;37.92
20955;BME280;10636;19.390;-99.256;2022-10-31T00:28:54;77773.94;;;26.14;37.86
20955;BME280;10636;19.390;-99.256;2022-10-31T00:31:23;77772.53;;;26.11;38.01
20955;BME280;10636;19.390;-99.256;2022-10-31T00:33:53;77791.34;;;26.11;38.23
20955;BME280;10636;19.390;-99.256;2022-10-31T00:36:21;77784.59;;;26.10;38.28
20955;BME280;10636;19.390;-99.256;2022-10-31T00:38:50;77797.25;;;26.07;38.08
20955;BME280;10636;19.390;-99.256;2022-10-31T00:41:18;77799.31;;;26.09;38.18
20955;BME280;10636;19.390;-99.256;2022-10-31T00:43:47;77805.25;;;26.05;38.14
20955;BME280;10636;19.390;-99.256;2022-10-31T00:46:15;77805.88;;;26.04;38.52
20955;BME280;10636;19.390;-99.256;2022-10-31T00:48:43;77815.25;;;26.03;38.85
20955;BME280;10636;19.390;-99.256;2022-10-31T00:51:13;77817.25;;;26.02;38.75
20955;BME280;10636;19.390;-99.256;2022-10-31T00:53:42;77813.13;;;25.99;38.79
20955;BME280;10636;19.390;-99.256;2022-10-31T00:56:10;77817.69;;;25.95;39.04
20955;BME280;10636;19.390;-99.256;2022-10-31T00:58:39;77821.66;;;25.94;39.44
20955;BME280;10636;19.390;-99.256;2022-10-31T01:01:07;77821.66;;;25.94;39.49
20955;BME280;10636;19.390;-99.256;2022-10-31T01:03:36;77823.06;;;25.95;39.83
20955;BME280;10636;19.390;-99.256;2022-10-31T01:06:07;77818.38;;;25.95;39.88
20955;BME280;10636;19.390;-99.256;2022-10-31T01:08:38;77810.22;;;25.93;40.13
20955;BME280;10636;19.390;-99.256;2022-10-31T01:11:08;77808.88;;;25.92;40.52
20955;BME280;10636;19.390;-99.256;2022-10-31T01:13:38;77814.25;;;25.92;40.63
20955;BME280;10636;19.390;-99.256;2022-10-31T01:16:09;77806.13;;;25.90;40.70
20955;BME280;10636;19.390;-99.256;2022-10-31T01:18:38;77814.78;;;25.89;40.80
20955;BME280;10636;19.390;-99.256;2022-10-31T01:21:08;77810.03;;;25.87;40.73
20955;BME280;10636;19.390;-99.256;2022-10-31T01:23:39;77821.41;;;25.86;40.87
20955;BME280;10636;19.390;-99.256;2022-10-31T01:26:09;77819.97;;;25.83;40.64
20955;BME280;10636;19.390;-99.256;2022-10-31T01:28:42;77837.41;;;25.81;40.91
20955;BME280;10636;19.390;-99.256;2022-10-31T01:31:11;77835.97;;;25.78;41.11
20955;BME280;10636;19.390;-99.256;2022-10-31T01:33:39;77854.78;;;25.78;41.32
20955;BME280;10636;19.390;-99.256;2022-10-31T01:36:16;77849.25;;;25.74;41.09
20955;BME280;10636;19.390;-99.256;2022-10-31T01:38:47;77863.44;;;25.77;41.73
20955;BME280;10636;19.390;-99.256;2022-10-31T01:41:18;77870.91;;;25.78;41.70
20955;BME280;10636;19.390;-99.256;2022-10-31T01:43:50;77872.88;;;25.78;41.71
20955;BME280;10636;19.390;-99.256;2022-10-31T01:46:22;77881.63;;;25.78;41.95
20955;BME280;10636;19.390;-99.256;2022-10-31T01:48:52;77881.63;;;25.78;41.65
20955;BME280;10636;19.390;-99.256;2022-10-31T01:51:25;77877.63;;;25.79;41.73
20955;BME280;10636;19.390;-99.256;2022-10-31T01:54:00;77872.63;;;25.72;41.83
20955;BME280;10636;19.390;-99.256;2022-10-31T01:56:29;77884.94;;;25.77;41.74
20955;BME280;10636;19.390;-99.256;2022-10-31T01:59:01;77886.94;;;25.76;42.03
20955;BME280;10636;19.390;-99.256;2022-10-31T02:01:29;77892.94;;;25.75;42.27
20955;BME280;10636;19.390;-99.256;2022-10-31T02:03:58;77888.94;;;25.76;42.41
20955;BME280;10636;19.390;-99.256;2022-10-31T02:06:33;77912.47;;;25.77;42.84
20955;BME280;10636;19.390;-99.256;2022-10-31T02:09:06;77898.97;;;25.75;43.58
20955;BME280;10636;19.390;-99.256;2022-10-31T02:11:36;77908.34;;;25.74;43.81
20955;BME280;10636;19.390;-99.256;2022-10-31T02:14:04;77919.78;;;25.75;44.02
20955;BME280;10636;19.390;-99.256;2022-10-31T02:16:33;77929.13;;;25.74;44.40
20955;BME280;10636;19.390;-99.256;2022-10-31T02:19:02;77929.72;;;25.72;44.57
20955;BME280;10636;19.390;-99.256;2022-10-31T02:21:37;77936.34;;;25.69;44.93
20955;BME280;10636;19.390;-99.256;2022-10-31T02:27:42;77951.00;;;25.66;45.15
20955;BME280;10636;19.390;-99.256;2022-10-31T02:30:22;77961.69;;;25.64;44.99
20955;BME280;10636;19.390;-99.256;2022-10-31T02:33:09;77973.75;;;25.63;45.55
20955;BME280;10636;19.390;-99.256;2022-10-31T02:35:52;77974.97;;;25.60;45.78
20955;BME280;10636;19.390;-99.256;2022-10-31T02:38:34;77976.28;;;25.59;45.89
20955;BME280;10636;19.390;-99.256;2022-10-31T02:41:14;77981.56;;;25.57;45.67
20955;BME280;10636;19.390;-99.256;2022-10-31T02:43:57;77982.28;;;25.58;46.04
20955;BME280;10636;19.390;-99.256;2022-10-31T02:46:33;77980.88;;;25.56;46.11
20955;BME280;10636;19.390;-99.256;2022-10-31T02:49:08;77982.81;;;25.54;45.97
20955;BME280;10636;19.390;-99.256;2022-10-31T02:51:39;77981.44;;;25.53;46.02
20955;BME280;10636;19.390;-99.256;2022-10-31T02:54:18;77974.66;;;25.52;46.38
20955;BME280;10636;19.390;-99.256;2022-10-31T02:56:48;77989.41;;;25.51;46.30
20955;BME280;10636;19.390;-99.256;2022-10-31T02:59:18;77992.03;;;25.49;46.25
20955;BME280;10636;19.390;-99.256;2022-10-31T03:02:01;77981.22;;;25.47;47.01
20955;BME280;10636;19.390;-99.256;2022-10-31T03:04:49;77978.38;;;25.43;46.71
20955;BME280;10636;19.390;-99.256;2022-10-31T03:07:28;77977.69;;;25.42;46.70
20955;BME280;10636;19.390;-99.256;2022-10-31T03:10:05;77980.97;;;25.41;46.84
20955;BME280;10636;19.390;-99.256;2022-10-31T03:12:40;77982.91;;;25.38;45.67
20955;BME280;10636;19.390;-99.256;2022-10-31T03:15:17;77991.50;;;25.35;44.83
20955;BME280;10636;19.390;-99.256;2022-10-31T03:17:52;78002.19;;;25.33;43.76
20955;BME280;10636;19.390;-99.256;2022-10-31T03:20:28;78018.13;;;25.28;42.55
20955;BME280;10636;19.390;-99.256;2022-10-31T03:22:59;78020.06;;;25.26;42.29
20955;BME280;10636;19.390;-99.256;2022-10-31T03:25:29;78020.59;;;25.22;41.58
20955;BME280;10636;19.390;-99.256;2022-10-31T03:28:01;78020.59;;;25.22;41.77
20955;BME280;10636;19.390;-99.256;2022-10-31T03:30:31;78027.31;;;25.23;41.46
20955;BME280;10636;19.390;-99.256;2022-10-31T03:33:04;78024.81;;;25.27;41.08
20955;BME280;10636;19.390;-99.256;2022-10-31T03:35:37;78023.66;;;25.33;41.37
20955;BME280;10636;19.390;-99.256;2022-10-31T03:38:09;78017.13;;;25.38;41.24
20955;BME280;10636;19.390;-99.256;2022-10-31T03:40:38;78012.44;;;25.38;41.67
20955;BME280;10636;19.390;-99.256;2022-10-31T03:43:10;78007.81;;;25.41;42.00
20955;BME280;10636;19.390;-99.256;2022-10-31T03:45:43;78005.22;;;25.43;41.58
20955;BME280;10636;19.390;-99.256;2022-10-31T03:48:13;78020.09;;;25.46;41.86
20955;BME280;10636;19.390;-99.256;2022-10-31T03:50:47;78025.47;;;25.46;42.64
20955;BME280;10636;19.390;-99.256;2022-10-31T03:53:23;78027.47;;;25.45;43.02
20955;BME280;10636;19.390;-99.256;2022-10-31T03:55:56;78028.78;;;25.44;43.54
20955;BME280;10636;19.390;-99.256;2022-10-31T03:58:31;78034.00;;;25.40;43.47
20955;BME280;10636;19.390;-99.256;2022-10-31T04:01:01;78031.25;;;25.38;43.77
20955;BME280;10636;19.390;-99.256;2022-10-31T04:03:34;78039.91;;;25.37;43.70
20955;BME280;10636;19.390;-99.256;2022-10-31T04:06:08;78035.22;;;25.37;44.03
20955;BME280;10636;19.390;-99.256;2022-10-31T04:08:41;78023.66;;;25.33;43.66
20955;BME280;10636;19.390;-99.256;2022-10-31T04:11:12;78023.72;;;25.35;43.62
20955;BME280;10636;19.390;-99.256;2022-10-31T04:13:43;78018.44;;;25.37;44.09
20955;BME280;10636;19.390;-99.256;2022-10-31T04:16:14;78013.06;;;25.37;44.44
20955;BME280;10636;19.390;-99.256;2022-10-31T04:18:43;78014.44;;;25.38;44.29
20955;BME280;10636;19.390;-99.256;2022-10-31T04:21:13;78003.72;;;25.38;44.53
20955;BME280;10636;19.390;-99.256;2022-10-31T04:23:42;77999.72;;;25.39;44.36
20955;BME280;10636;19.390;-99.256;2022-10-31T04:26:12;78001.09;;;25.40;44.39
20955;BME280;10636;19.390;-99.256;2022-10-31T04:28:40;77998.50;;;25.42;44.50
20955;BME280;10636;19.390;-99.256;2022-10-31T04:31:10;77992.41;;;25.41;44.16
20955;BME280;10636;19.390;-99.256;2022-10-31T04:33:39;77993.81;;;25.42;44.44
20955;BME280;10636;19.390;-99.256;2022-10-31T04:36:07;78002.63;;;25.45;44.83
20955;BME280;10636;19.390;-99.256;2022-10-31T04:38:38;77999.94;;;25.45;44.16
20955;BME280;10636;19.390;-99.256;2022-10-31T04:41:06;77997.94;;;25.45;44.30
20955;BME280;10636;19.390;-99.256;2022-10-31T04:43:35;78002.63;;;25.45;44.48
20955;BME280;10636;19.390;-99.256;2022-10-31T04:46:04;77995.88;;;25.44;44.56
20955;BME280;10636;19.390;-99.256;2022-10-31T04:48:32;77996.56;;;25.44;44.36
20955;BME280;10636;19.390;-99.256;2022-10-31T04:51:01;78002.63;;;25.45;44.60
20955;BME280;10636;19.390;-99.256;2022-10-31T04:53:30;78001.94;;;25.44;44.65
20955;BME280;10636;19.390;-99.256;2022-10-31T04:56:00;78002.56;;;25.43;44.75
20955;BME280;10636;19.390;-99.256;2022-10-31T04:58:29;78007.91;;;25.43;44.75
20955;BME280;10636;19.390;-99.256;2022-10-31T05:00:57;78014.59;;;25.42;44.71
20955;BME280;10636;19.390;-99.256;2022-10-31T05:03:25;78010.59;;;25.43;44.75
20955;BME280;10636;19.390;-99.256;2022-10-31T05:05:54;78015.28;;;25.42;44.78
20955;BME280;10636;19.390;-99.256;2022-10-31T05:08:24;78009.13;;;25.40;44.91
20955;BME280;10636;19.390;-99.256;2022-10-31T05:10:53;78010.50;;;25.41;44.79
20955;BME280;10636;19.390;-99.256;2022-10-31T05:13:23;78012.50;;;25.40;45.12
20955;BME280;10636;19.390;-99.256;2022-10-31T05:15:51;78006.47;;;25.40;44.60
20955;BME280;10636;19.390;-99.256;2022-10-31T05:18:19;78011.81;;;25.40;44.46
20955;BME280;10636;19.390;-99.256;2022-10-31T05:20:48;78015.81;;;25.39;44.64
20955;BME280;10636;19.390;-99.256;2022-10-31T05:23:17;78018.44;;;25.37;44.97
20955;BME280;10636;19.390;-99.256;2022-10-31T05:25:45;78013.06;;;25.37;44.37
20955;BME280;10636;19.390;-99.256;2022-10-31T05:28:13;78019.72;;;25.36;44.78
20955;BME280;10636;19.390;-99.256;2022-10-31T05:30:43;78017.13;;;25.38;44.79
20955;BME280;10636;19.390;-99.256;2022-10-31T05:33:12;78021.81;;;25.37;44.54
20955;BME280;10636;19.390;-99.256;2022-10-31T05:35:40;78012.13;;;25.30;44.70
20955;BME280;10636;19.390;-99.256;2022-10-31T05:38:09;78015.66;;;25.35;44.75
20955;BME280;10636;19.390;-99.256;2022-10-31T05:40:37;78012.28;;;25.34;44.75
20955;BME280;10636;19.390;-99.256;2022-10-31T05:43:05;78012.34;;;25.36;44.58
20955;BME280;10636;19.390;-99.256;2022-10-31T05:45:34;78005.00;;;25.37;44.46
20955;BME280;10636;19.390;-99.256;2022-10-31T05:48:05;77999.66;;;25.37;44.46
20955;BME280;10636;19.390;-99.256;2022-10-31T05:50:33;78000.94;;;25.36;44.87
20955;BME280;10636;19.390;-99.256;2022-10-31T05:53:03;77999.56;;;25.35;45.01
20955;BME280;10636;19.390;-99.256;2022-10-31T05:55:32;78006.31;;;25.36;44.69
20955;BME280;10636;19.390;-99.256;2022-10-31T05:58:01;77999.56;;;25.35;44.69
20955;BME280;10636;19.390;-99.256;2022-10-31T06:00:29;77999.56;;;25.35;44.47
20955;BME280;10636;19.390;-99.256;2022-10-31T06:02:58;78000.88;;;25.34;44.91
20955;BME280;10636;19.390;-99.256;2022-10-31T06:05:29;78001.50;;;25.32;45.08
20955;BME280;10636;19.390;-99.256;2022-10-31T06:07:58;77995.44;;;25.32;44.61
20955;BME280;10636;19.390;-99.256;2022-10-31T06:10:26;77993.34;;;25.30;44.56
20955;BME280;10636;19.390;-99.256;2022-10-31T06:12:55;77998.13;;;25.32;44.81
20955;BME280;10636;19.390;-99.256;2022-10-31T06:15:23;77995.44;;;25.32;44.97
20955;BME280;10636;19.390;-99.256;2022-10-31T06:17:59;77991.28;;;25.28;44.92
20955;BME280;10636;19.390;-99.256;2022-10-31T06:20:30;77979.16;;;25.27;44.91
20955;BME280;10636;19.390;-99.256;2022-10-31T06:22:58;77977.78;;;25.26;44.77
20955;BME280;10636;19.390;-99.256;2022-10-31T06:25:27;77981.75;;;25.25;44.93
20955;BME280;10636;19.390;-99.256;2022-10-31T06:27:55;77968.13;;;25.19;44.91
20955;BME280;10636;19.390;-99.256;2022-10-31T06:30:24;77973.66;;;25.23;45.02
20955;BME280;10636;19.390;-99.256;2022-10-31T06:32:52;77972.28;;;25.22;44.82
20955;BME280;10636;19.390;-99.256;2022-10-31T06:35:21;77971.59;;;25.22;44.85
20955;BME280;10636;19.390;-99.256;2022-10-31T06:37:54;77968.91;;;25.22;44.74
20955;BME280;10636;19.390;-99.256;2022-10-31T06:40:23;77973.59;;;25.21;44.77
20955;BME280;10636;19.390;-99.256;2022-10-31T06:42:57;77968.22;;;25.21;45.04
20955;BME280;10636;19.390;-99.256;2022-10-31T06:45:25;77957.38;;;25.19;44.99
20955;BME280;10636;19.390;-99.256;2022-10-31T06:47:55;77951.34;;;25.19;45.14
20955;BME280;10636;19.390;-99.256;2022-10-31T06:50:23;77953.94;;;25.17;44.68
20955;BME280;10636;19.390;-99.256;2022-10-31T06:52:54;77951.88;;;25.15;44.83
20955;BME280;10636;19.390;-99.256;2022-10-31T06:55:24;77943.06;;;25.13;44.66
20955;BME280;10636;19.390;-99.256;2022-10-31T06:57:53;77935.53;;;25.09;44.78
20955;BME280;10636;19.390;-99.256;2022-10-31T07:00:22;77943.75;;;25.13;45.06
20955;BME280;10636;19.390;-99.256;2022-10-31T07:02:55;77939.06;;;25.14;44.82
20955;BME280;10636;19.390;-99.256;2022-10-31T07:05:24;77937.69;;;25.13;44.88
20955;BME280;10636;19.390;-99.256;2022-10-31T07:07:55;77934.31;;;25.12;44.90
20955;BME280;10636;19.390;-99.256;2022-10-31T07:10:25;77937.00;;;25.12;44.93
20955;BME280;10636;19.390;-99.256;2022-10-31T07:12:57;77930.25;;;25.11;44.68
20955;BME280;10636;19.390;-99.256;2022-10-31T07:15:26;77924.22;;;25.11;44.70
20955;BME280;10636;19.390;-99.256;2022-10-31T07:17:59;77915.38;;;25.08;44.69
20955;BME280;10636;19.390;-99.256;2022-10-31T07:20:28;77916.06;;;25.09;44.66
20955;BME280;10636;19.390;-99.256;2022-10-31T07:22:58;77916.06;;;25.09;45.03
20955;BME280;10636;19.390;-99.256;2022-10-31T07:25:27;77910.03;;;25.08;44.83
20955;BME280;10636;19.390;-99.256;2022-10-31T07:27:55;77901.97;;;25.08;45.16
20955;BME280;10636;19.390;-99.256;2022-10-31T07:30:24;77903.97;;;25.08;44.81
20955;BME280;10636;19.390;-99.256;2022-10-31T07:32:52;77902.59;;;25.07;44.58
20955;BME280;10636;19.390;-99.256;2022-10-31T07:35:23;77904.59;;;25.06;45.03
20955;BME280;10636;19.390;-99.256;2022-10-31T07:37:52;77902.59;;;25.07;44.66
20955;BME280;10636;19.390;-99.256;2022-10-31T07:40:22;77903.28;;;25.07;44.65
20955;BME280;10636;19.390;-99.256;2022-10-31T07:42:52;77902.59;;;25.07;44.58
20955;BME280;10636;19.390;-99.256;2022-10-31T07:45:21;77907.28;;;25.06;44.80
20955;BME280;10636;19.390;-99.256;2022-10-31T07:47:50;77909.84;;;25.04;44.69
20955;BME280;10636;19.390;-99.256;2022-10-31T07:50:20;77910.53;;;25.04;44.60
20955;BME280;10636;19.390;-99.256;2022-10-31T07:52:58;77917.81;;;25.02;44.73
20955;BME280;10636;19.390;-99.256;2022-10-31T07:55:29;77905.25;;;24.89;44.50
20955;BME280;10636;19.390;-99.256;2022-10-31T07:57:59;77927.19;;;25.01;44.79
20955;BME280;10636;19.390;-99.256;2022-10-31T08:00:28;77919.03;;;24.99;44.95
20955;BME280;10636;19.390;-99.256;2022-10-31T08:02:58;77922.44;;;24.99;44.69
20955;BME280;10636;19.390;-99.256;2022-10-31T08:05:26;77921.66;;;24.97;44.63
20955;BME280;10636;19.390;-99.256;2022-10-31T08:07:55;77916.97;;;24.97;44.69
20955;BME280;10636;19.390;-99.256;2022-10-31T08:10:24;77916.31;;;24.97;44.62
20955;BME280;10636;19.390;-99.256;2022-10-31T08:12:58;77914.94;;;24.96;44.82
20955;BME280;10636;19.390;-99.256;2022-10-31T08:15:27;77909.56;;;24.96;45.00
20955;BME280;10636;19.390;-99.256;2022-10-31T08:17:56;77905.41;;;24.93;44.73
20955;BME280;10636;19.390;-99.256;2022-10-31T08:20:25;77900.03;;;24.93;44.67
20955;BME280;10636;19.390;-99.256;2022-10-31T08:22:57;77885.25;;;24.92;44.85
20955;BME280;10636;19.390;-99.256;2022-10-31T08:25:27;77885.31;;;24.94;45.05
20955;BME280;10636;19.390;-99.256;2022-10-31T08:27:57;77869.69;;;24.88;45.08
20955;BME280;10636;19.390;-99.256;2022-10-31T08:30:27;77880.59;;;24.92;45.30
20955;BME280;10636;19.390;-99.256;2022-10-31T08:33:00;77878.53;;;24.91;44.70
20955;BME280;10636;19.390;-99.256;2022-10-31T08:35:29;77881.19;;;24.91;45.05
20955;BME280;10636;19.390;-99.256;2022-10-31T08:37:58;77877.16;;;24.90;44.80
20955;BME280;10636;19.390;-99.256;2022-10-31T08:40:27;77881.13;;;24.89;45.37
20955;BME280;10636;19.390;-99.256;2022-10-31T08:42:59;77874.84;;;24.82;45.42
20955;BME280;10636;19.390;-99.256;2022-10-31T08:45:28;77881.06;;;24.87;45.12
20955;BME280;10636;19.390;-99.256;2022-10-31T08:48:00;77877.47;;;24.80;44.89
20955;BME280;10636;19.390;-99.256;2022-10-31T08:50:30;77880.38;;;24.86;45.17
20955;BME280;10636;19.390;-99.256;2022-10-31T08:53:01;77879.00;;;24.85;45.42
20955;BME280;10636;19.390;-99.256;2022-10-31T08:55:30;77866.63;;;24.78;45.46
20955;BME280;10636;19.390;-99.256;2022-10-31T08:58:00;77880.97;;;24.85;45.44
20955;BME280;10636;19.390;-99.256;2022-10-31T09:00:29;77876.22;;;24.83;45.17
20955;BME280;10636;19.390;-99.256;2022-10-31T09:02:58;77864.13;;;24.82;45.66
20955;BME280;10636;19.390;-99.256;2022-10-31T09:05:27;77855.31;;;24.80;45.44
20955;BME280;10636;19.390;-99.256;2022-10-31T09:07:56;77870.09;;;24.81;45.62
20955;BME280;10636;19.390;-99.256;2022-10-31T09:10:25;77866.03;;;24.80;45.12
20955;BME280;10636;19.390;-99.256;2022-10-31T09:12:56;77870.03;;;24.78;45.63
20955;BME280;10636;19.390;-99.256;2022-10-31T09:15:27;77857.22;;;24.77;45.58
20955;BME280;10636;19.390;-99.256;2022-10-31T09:17:56;77860.53;;;24.75;45.37
20955;BME280;10636;19.390;-99.256;2022-10-31T09:20:24;77857.06;;;24.73;45.32
20955;BME280;10636;19.390;-99.256;2022-10-31T09:22:56;77852.41;;;24.73;45.69
20955;BME280;10636;19.390;-99.256;2022-10-31T09:25:25;77846.13;;;24.67;45.46
20955;BME280;10636;19.390;-99.256;2022-10-31T09:27:56;77857.00;;;24.71;45.32
20955;BME280;10636;19.390;-99.256;2022-10-31T09:30:28;77854.31;;;24.71;45.67
20955;BME280;10636;19.390;-99.256;2022-10-31T09:32:57;77853.63;;;24.70;45.32
20955;BME280;10636;19.390;-99.256;2022-10-31T09:35:26;77854.31;;;24.71;45.33
20955;BME280;10636;19.390;-99.256;2022-10-31T09:37:55;77850.88;;;24.68;45.34
20955;BME280;10636;19.390;-99.256;2022-10-31T09:40:27;77859.53;;;24.67;45.21
20955;BME280;10636;19.390;-99.256;2022-10-31T09:43:05;77854.84;;;24.67;44.97
20955;BME280;10636;19.390;-99.256;2022-10-31T09:45:44;77854.16;;;24.67;45.22
20955;BME280;10636;19.390;-99.256;2022-10-31T09:48:28;77850.81;;;24.66;45.56
20955;BME280;10636;19.390;-99.256;2022-10-31T09:51:03;77858.84;;;24.66;45.19
20955;BME280;10636;19.390;-99.256;2022-10-31T09:53:36;77850.81;;;24.66;45.28
20955;BME280;10636;19.390;-99.256;2022-10-31T09:56:07;77849.44;;;24.65;45.13
20955;BME280;10636;19.390;-99.256;2022-10-31T09:58:42;77844.00;;;24.63;45.19
20955;BME280;10636;19.390;-99.256;2022-10-31T10:01:31;77845.38;;;24.64;45.25
20955;BME280;10636;19.390;-99.256;2022-10-31T10:04:09;77847.97;;;24.62;45.11
20955;BME280;10636;19.390;-99.256;2022-10-31T10:06:45;77851.97;;;24.61;45.19
20955;BME280;10636;19.390;-99.256;2022-10-31T10:09:14;77851.97;;;24.61;45.60
20955;BME280;10636;19.390;-99.256;2022-10-31T10:11:59;77840.53;;;24.61;45.51
20955;BME280;10636;19.390;-99.256;2022-10-31T10:14:48;77837.19;;;24.60;45.25
20955;BME280;10636;19.390;-99.256;2022-10-31T10:17:30;77843.84;;;24.59;45.32
20955;BME280;10636;19.390;-99.256;2022-10-31T10:20:24;77834.44;;;24.58;45.46
20955;BME280;10636;19.390;-99.256;2022-10-31T10:23:20;77828.44;;;24.60;45.30
20955;BME280;10636;19.390;-99.256;2022-10-31T10:25:53;77825.06;;;24.59;45.08
20955;BME280;10636;19.390;-99.256;2022-10-31T10:28:28;77820.41;;;24.60;45.61
20955;BME280;10636;19.390;-99.256;2022-10-31T10:31:03;77822.41;;;24.59;45.70
20955;BME280;10636;19.390;-99.256;2022-10-31T10:33:38;77823.63;;;24.56;45.65
20955;BME280;10636;19.390;-99.256;2022-10-31T10:36:12;77830.34;;;24.57;45.09
20955;BME280;10636;19.390;-99.256;2022-10-31T10:38:49;77832.97;;;24.55;45.66
20955;BME280;10636;19.390;-99.256;2022-10-31T10:41:20;77832.97;;;24.55;45.68
20955;BME280;10636;19.390;-99.256;2022-10-31T10:43:50;77839.00;;;24.56;45.36
20955;BME280;10636;19.390;-99.256;2022-10-31T10:46:25;77841.00;;;24.55;45.40
20955;BME280;10636;19.390;-99.256;2022-10-31T10:49:17;77837.63;;;24.55;45.20
20955;BME280;10636;19.390;-99.256;2022-10-31T10:51:49;77843.69;;;24.55;45.38
20955;BME280;10636;19.390;-99.256;2022-10-31T10:57:19;77842.16;;;24.50;45.61
20955;BME280;10636;19.390;-99.256;2022-10-31T10:59:50;77841.47;;;24.49;45.82
20955;BME280;10636;19.390;-99.256;2022-10-31T11:02:20;77842.78;;;24.48;46.01
20955;BME280;10636;19.390;-99.256;2022-10-31T11:04:54;77842.78;;;24.48;45.37
20955;BME280;10636;19.390;-99.256;2022-10-31T11:07:23;77832.69;;;24.47;45.37
20955;BME280;10636;19.390;-99.256;2022-10-31T11:10:03;77840.72;;;24.47;45.84
20955;BME280;10636;19.390;-99.256;2022-10-31T11:12:39;77843.41;;;24.47;45.99
20955;BME280;10636;19.390;-99.256;2022-10-31T11:15:18;77842.69;;;24.46;45.55
20955;BME280;10636;19.390;-99.256;2022-10-31T11:17:48;77850.03;;;24.46;45.72
20955;BME280;10636;19.390;-99.256;2022-10-31T11:20:29;77845.31;;;24.44;45.76
20955;BME280;10636;19.390;-99.256;2022-10-31T11:23:16;77850.66;;;24.44;45.59
20955;BME280;10636;19.390;-99.256;2022-10-31T11:25:54;77863.38;;;24.44;45.96
20955;BME280;10636;19.390;-99.256;2022-10-31T11:28:23;77864.69;;;24.43;46.05
20955;BME280;10636;19.390;-99.256;2022-10-31T11:30:54;77868.69;;;24.42;45.83
20955;BME280;10636;19.390;-99.256;2022-10-31T11:33:27;77868.06;;;24.43;45.84
20955;BME280;10636;19.390;-99.256;2022-10-31T11:35:59;77867.97;;;24.41;45.96
20955;BME280;10636;19.390;-99.256;2022-10-31T11:38:33;77875.41;;;24.43;45.74
20955;BME280;10636;19.390;-99.256;2022-10-31T11:41:10;77882.09;;;24.42;46.20
20955;BME280;10636;19.390;-99.256;2022-10-31T11:43:46;77892.09;;;24.41;46.30
20955;BME280;10636;19.390;-99.256;2022-10-31T11:46:19;77885.97;;;24.39;45.70
20955;BME280;10636;19.390;-99.256;2022-10-31T11:48:52;77886.66;;;24.39;46.30
20955;BME280;10636;19.390;-99.256;2022-10-31T11:51:24;77884.59;;;24.38;45.75
20955;BME280;10636;19.390;-99.256;2022-10-31T11:53:55;77892.56;;;24.36;45.62
20955;BME280;10636;19.390;-99.256;2022-10-31T11:56:26;77896.50;;;24.35;45.96
20955;BME280;10636;19.390;-99.256;2022-10-31T11:59:02;77892.56;;;24.36;46.62
20955;BME280;10636;19.390;-99.256;2022-10-31T12:01:31;77888.47;;;24.35;45.87
20955;BME280;10636;19.390;-99.256;2022-10-31T12:04:06;77894.44;;;24.33;46.78
20955;BME280;10636;19.390;-99.256;2022-10-31T12:06:37;77896.44;;;24.33;46.41
20955;BME280;10636;19.390;-99.256;2022-10-31T12:09:19;77895.81;;;24.34;46.95
20955;BME280;10636;19.390;-99.256;2022-10-31T12:12:15;77896.44;;;24.33;46.36
20955;BME280;10636;19.390;-99.256;2022-10-31T12:14:56;77900.44;;;24.32;46.16
20955;BME280;10636;19.390;-99.256;2022-10-31T12:17:38;77909.84;;;24.33;46.95
20955;BME280;10636;19.390;-99.256;2022-10-31T12:20:20;77906.38;;;24.30;46.79
20955;BME280;10636;19.390;-99.256;2022-10-31T12:23:01;77908.47;;;24.32;46.81
20955;BME280;10636;19.390;-99.256;2022-10-31T12:25:39;77912.53;;;24.33;46.48
20955;BME280;10636;19.390;-99.256;2022-10-31T12:28:43;77900.50;;;24.16;46.54
20955;BME280;10636;19.390;-99.256;2022-10-31T12:31:23;77911.75;;;24.30;46.79
20955;BME280;10636;19.390;-99.256;2022-10-31T12:34:02;77919.19;;;24.32;46.83
20955;BME280;10636;19.390;-99.256;2022-10-31T12:36:45;77917.78;;;24.31;46.36
20955;BME280;10636;19.390;-99.256;2022-10-31T12:39:35;77919.03;;;24.27;46.22
20955;BME280;10636;19.390;-99.256;2022-10-31T12:42:12;77923.00;;;24.26;46.88
20955;BME280;10636;19.390;-99.256;2022-10-31T12:45:05;77934.94;;;24.23;46.82
20955;BME280;10636;19.390;-99.256;2022-10-31T12:47:55;77933.56;;;24.22;46.69
20955;BME280;10636;19.390;-99.256;2022-10-31T12:50:38;77936.19;;;24.20;46.06
20955;BME280;10636;19.390;-99.256;2022-10-31T12:53:19;77939.44;;;24.19;46.17
20955;BME280;10636;19.390;-99.256;2022-10-31T12:55:59;77944.13;;;24.18;46.49
20955;BME280;10636;19.390;-99.256;2022-10-31T12:58:33;77941.44;;;24.18;46.08
20955;BME280;10636;19.390;-99.256;2022-10-31T13:01:09;77932.47;;;24.12;45.77
20955;BME280;10636;19.390;-99.256;2022-10-31T13:03:45;77946.72;;;24.16;45.67
20955;BME280;10636;19.390;-99.256;2022-10-31T13:06:18;77941.72;;;24.09;45.89
20955;BME280;10636;19.390;-99.256;2022-10-31T13:08:50;77960.03;;;24.14;46.29
20955;BME280;10636;19.390;-99.256;2022-10-31T13:11:23;77953.28;;;24.13;46.10
20955;BME280;10636;19.390;-99.256;2022-10-31T13:13:59;77931.22;;;23.97;45.88